Time;durP1;ratioP1;P1;durP2;ratioP2;P2;SDS_P1;SDS_P2;PMS_P1;PMS_P2;Temp;Humidity;BMP_temperature;BMP_pressure;BME280_temperature;BME280_humidity;BME280_pressure;Samples;Min_cycle;Max_cycle;Signal;HPM_P1;HPM_P2
2022/11/15 00:00:11;;;;;;;25.07;18.27;;;11.50;99.90;;;;;;5053929;28;20211;-85
2022/11/15 00:02:38;;;;;;;24.40;18.07;;;11.60;99.90;;;;;;5053866;28;20209;-84
2022/11/15 00:05:07;;;;;;;24.17;17.70;;;11.60;99.90;;;;;;5053854;28;20640;-85
2022/11/15 00:07:36;;;;;;;25.23;18.80;;;11.60;99.90;;;;;;5053528;28;20189;-84
2022/11/15 00:10:04;;;;;;;26.30;19.07;;;11.60;99.90;;;;;;5053646;28;20190;-84
2022/11/15 00:12:31;;;;;;;22.23;18.00;;;11.60;99.90;;;;;;5053810;28;20193;-84
2022/11/15 00:14:59;;;;;;;25.37;18.83;;;11.60;99.90;;;;;;5053431;28;20217;-85
2022/11/15 00:17:25;;;;;;;21.20;17.27;;;11.70;99.90;;;;;;5053332;28;20683;-83
2022/11/15 00:19:53;;;;;;;20.37;16.50;;;11.60;99.90;;;;;;5053561;28;20209;-84
2022/11/15 00:22:20;;;;;;;22.63;17.80;;;11.70;99.90;;;;;;5053618;28;20209;-84
2022/11/15 00:24:49;;;;;;;20.53;17.87;;;11.70;99.90;;;;;;5053420;28;20201;-85
2022/11/15 00:27:16;;;;;;;22.77;17.77;;;11.70;99.90;;;;;;5053359;28;20197;-86
2022/11/15 00:29:43;;;;;;;24.23;17.60;;;11.70;99.90;;;;;;5053181;28;20205;-85
2022/11/15 00:32:10;;;;;;;19.67;16.37;;;11.80;99.90;;;;;;5053424;28;20216;-85
2022/11/15 00:34:39;;;;;;;22.77;16.57;;;11.80;99.90;;;;;;5053097;28;20229;-85
2022/11/15 00:37:07;;;;;;;24.33;16.97;;;11.90;99.90;;;;;;5053279;28;20206;-85
2022/11/15 00:39:36;;;;;;;19.33;15.90;;;11.90;99.90;;;;;;5053331;28;20552;-84
2022/11/15 00:42:04;;;;;;;21.37;16.27;;;11.90;99.90;;;;;;5052650;28;20213;-85
2022/11/15 00:44:31;;;;;;;19.07;15.17;;;11.90;99.90;;;;;;5052875;28;20695;-85
2022/11/15 00:46:58;;;;;;;21.00;14.93;;;12.00;99.90;;;;;;5053257;28;20197;-84
2022/11/15 00:49:25;;;;;;;19.27;15.53;;;12.00;99.90;;;;;;5053328;28;20197;-84
2022/11/15 00:51:52;;;;;;;18.60;14.97;;;12.10;99.90;;;;;;5053473;28;20214;-84
2022/11/15 00:54:18;;;;;;;19.00;15.57;;;12.20;99.90;;;;;;5053892;28;20226;-84
2022/11/15 00:56:45;;;;;;;21.17;15.50;;;12.10;99.90;;;;;;5054473;28;20211;-84
2022/11/15 00:59:14;;;;;;;18.80;15.47;;;12.10;99.90;;;;;;5054117;28;20209;-83
2022/11/15 01:01:41;;;;;;;17.73;15.20;;;12.20;99.90;;;;;;5055139;28;20208;-85
2022/11/15 01:04:09;;;;;;;19.10;14.97;;;12.10;99.90;;;;;;5055004;28;20210;-85
2022/11/15 01:06:36;;;;;;;19.23;14.40;;;12.10;99.90;;;;;;5055124;28;20240;-85
2022/11/15 01:09:04;;;;;;;17.70;13.97;;;12.10;99.90;;;;;;5054403;28;20220;-82
2022/11/15 01:11:31;;;;;;;18.70;14.37;;;12.10;99.90;;;;;;5052932;28;20193;-81
2022/11/15 01:13:58;;;;;;;17.93;13.73;;;12.10;99.90;;;;;;5052429;28;20202;-83
2022/11/15 01:16:26;;;;;;;18.40;13.50;;;12.20;99.90;;;;;;5052589;28;20202;-84
2022/11/15 01:18:53;;;;;;;15.57;13.47;;;12.20;99.90;;;;;;5052810;28;20193;-84
2022/11/15 01:21:20;;;;;;;20.67;14.90;;;12.30;99.90;;;;;;5052573;28;20205;-83
2022/11/15 01:23:48;;;;;;;18.50;14.13;;;12.20;99.90;;;;;;5052322;28;20702;-84
2022/11/15 01:26:17;;;;;;;18.57;14.63;;;12.20;99.90;;;;;;5052473;28;20205;-85
2022/11/15 01:28:43;;;;;;;19.93;14.53;;;12.20;99.90;;;;;;5052245;28;20636;-83
2022/11/15 01:31:13;;;;;;;18.13;14.47;;;12.20;99.90;;;;;;5052454;28;20209;-83
2022/11/15 01:33:41;;;;;;;18.00;13.87;;;12.20;99.90;;;;;;5052610;28;20208;-83
2022/11/15 01:36:11;;;;;;;15.37;13.53;;;12.20;99.90;;;;;;5052645;28;20248;-83
2022/11/15 01:38:38;;;;;;;18.00;14.53;;;12.20;99.90;;;;;;5052355;28;20645;-82
2022/11/15 01:41:05;;;;;;;18.20;14.80;;;12.20;99.90;;;;;;5052002;28;20672;-83
2022/11/15 01:43:34;;;;;;;17.83;14.13;;;12.20;99.90;;;;;;5052237;28;20212;-83
2022/11/15 01:46:07;;;;;;;19.03;14.23;;;12.20;99.90;;;;;;5052505;28;20658;-83
2022/11/15 01:48:35;;;;;;;20.40;13.67;;;12.10;99.90;;;;;;5052406;28;20672;-82
2022/11/15 01:51:11;;;;;;;19.80;13.50;;;12.20;99.90;;;;;;5052339;28;20213;-82
2022/11/15 01:53:44;;;;;;;19.37;14.43;;;12.20;99.90;;;;;;5054015;28;20216;-84
2022/11/15 01:56:14;;;;;;;17.70;14.07;;;12.20;99.90;;;;;;5055756;28;20610;-84
2022/11/15 01:58:42;;;;;;;16.53;13.33;;;12.20;99.90;;;;;;5056108;28;20660;-84
2022/11/15 02:01:09;;;;;;;17.23;13.73;;;12.20;99.90;;;;;;5038655;28;20209;-85
2022/11/15 02:03:43;;;;;;;17.73;14.20;;;12.10;99.90;;;;;;5056348;28;20556;-85
2022/11/15 02:06:11;;;;;;;16.00;13.63;;;12.00;99.90;;;;;;5056005;28;20230;-85
2022/11/15 02:08:38;;;;;;;17.17;13.50;;;12.00;99.90;;;;;;5056056;28;20208;-83
2022/11/15 02:11:09;;;;;;;15.57;13.53;;;12.00;99.90;;;;;;5055859;28;20216;-84
2022/11/15 02:13:37;;;;;;;21.83;14.50;;;11.90;99.90;;;;;;5055987;28;20196;-84
2022/11/15 02:16:13;;;;;;;18.80;14.47;;;12.00;99.90;;;;;;5055790;28;20244;-84
2022/11/15 02:18:47;;;;;;;18.90;13.63;;;12.00;99.90;;;;;;5055423;28;20232;-83
2022/11/15 02:21:20;;;;;;;19.00;14.37;;;12.00;99.90;;;;;;5055157;28;20215;-82
2022/11/15 02:24:26;;;;;;;20.17;13.73;;;12.00;99.90;;;;;;5055416;28;20657;-83
2022/11/15 02:27:28;;;;;;;18.50;13.87;;;12.00;99.90;;;;;;5055419;28;20249;-84
2022/11/15 02:30:22;;;;;;;19.37;13.70;;;12.00;99.90;;;;;;5055657;28;20192;-84
2022/11/15 02:32:55;;;;;;;18.67;12.60;;;12.00;99.90;;;;;;5054391;28;20296;-82
2022/11/15 02:35:35;;;;;;;17.90;13.27;;;11.90;99.90;;;;;;5046811;28;20715;-84
2022/11/15 02:38:11;;;;;;;20.97;13.20;;;11.80;99.90;;;;;;5055410;28;20242;-85
2022/11/15 02:40:46;;;;;;;18.87;14.27;;;11.80;99.90;;;;;;5054504;28;20266;-85
2022/11/15 02:46:10;;;;;;;21.75;15.05;;;11.80;99.90;;;;;;5051964;28;20950;-84
2022/11/15 02:48:37;;;;;;;16.33;12.87;;;11.80;99.90;;;;;;5047948;28;20210;-84
2022/11/15 02:51:05;;;;;;;16.63;13.57;;;11.80;99.90;;;;;;5052975;28;20213;-84
2022/11/15 02:53:33;;;;;;;17.87;12.93;;;11.80;99.90;;;;;;5054615;28;20216;-84
2022/11/15 02:56:02;;;;;;;21.63;14.03;;;11.80;99.90;;;;;;5054504;28;20232;-85
2022/11/15 02:59:08;;;;;;;18.37;13.23;;;11.80;99.90;;;;;;5055109;28;20201;-84
2022/11/15 03:01:47;;;;;;;17.83;13.10;;;11.80;99.90;;;;;;5043037;28;20208;-84
2022/11/15 03:04:25;;;;;;;19.67;12.87;;;11.90;99.90;;;;;;5054618;28;20209;-84
2022/11/15 03:06:58;;;;;;;15.20;11.87;;;11.90;99.90;;;;;;5041106;28;20228;-83
2022/11/15 03:09:35;;;;;;;17.70;12.63;;;11.80;99.90;;;;;;5051707;28;20216;-84
2022/11/15 03:12:11;;;;;;;18.93;12.30;;;11.80;99.90;;;;;;5054241;28;20614;-85
2022/11/15 03:14:44;;;;;;;13.33;11.10;;;11.80;99.90;;;;;;5054488;28;20204;-84
2022/11/15 03:17:16;;;;;;;16.03;11.27;;;11.80;99.90;;;;;;5054438;28;20201;-84
2022/11/15 03:19:47;;;;;;;16.00;11.60;;;11.80;99.90;;;;;;5054448;28;20201;-84
2022/11/15 03:22:21;;;;;;;13.37;11.43;;;11.80;99.90;;;;;;5054077;28;20213;-84
2022/11/15 03:24:52;;;;;;;14.30;11.00;;;11.80;99.90;;;;;;5053961;28;20212;-85
2022/11/15 03:27:24;;;;;;;14.07;10.20;;;11.70;99.90;;;;;;5054393;28;20584;-84
2022/11/15 03:29:57;;;;;;;15.90;10.33;;;11.70;99.90;;;;;;5054362;28;20573;-84
2022/11/15 03:32:30;;;;;;;15.07;10.20;;;11.70;99.90;;;;;;5040639;28;20197;-84
2022/11/15 03:34:59;;;;;;;16.20;10.10;;;11.80;99.90;;;;;;5054185;28;20224;-84
2022/11/15 03:37:34;;;;;;;13.23;9.83;;;11.80;99.90;;;;;;5053882;28;20204;-84
2022/11/15 03:40:01;;;;;;;11.97;10.07;;;11.60;99.90;;;;;;5053681;28;20287;-85
2022/11/15 03:42:33;;;;;;;14.90;9.83;;;11.60;99.90;;;;;;5053652;28;20204;-84
2022/11/15 03:45:07;;;;;;;13.20;9.87;;;11.60;99.90;;;;;;5053750;28;20210;-85
2022/11/15 03:47:39;;;;;;;12.50;9.03;;;11.50;99.90;;;;;;5053476;28;20200;-84
2022/11/15 03:50:11;;;;;;;14.87;9.40;;;11.50;99.90;;;;;;5053931;28;20214;-84
2022/11/15 03:52:40;;;;;;;13.80;9.37;;;11.50;99.90;;;;;;5053405;28;20649;-85
2022/11/15 03:55:10;;;;;;;12.43;8.90;;;11.50;99.90;;;;;;5054013;28;20240;-85
2022/11/15 03:57:40;;;;;;;12.17;8.17;;;11.50;99.90;;;;;;5053655;28;20216;-84
2022/11/15 04:00:08;;;;;;;11.27;8.07;;;11.50;99.90;;;;;;5053902;28;20208;-85
2022/11/15 04:02:36;;;;;;;11.90;8.17;;;11.50;99.90;;;;;;5053346;28;20201;-84
2022/11/15 04:05:04;;;;;;;12.13;7.93;;;11.60;99.90;;;;;;5053395;28;20208;-85
2022/11/15 04:07:32;;;;;;;11.37;7.53;;;11.50;99.90;;;;;;5053092;28;20649;-85
2022/11/15 04:10:05;;;;;;;12.40;7.17;;;11.50;99.90;;;;;;5053451;28;20209;-85
2022/11/15 04:12:33;;;;;;;11.57;7.57;;;11.60;99.90;;;;;;5053339;28;20204;-85
2022/11/15 04:15:07;;;;;;;12.83;7.90;;;11.60;99.90;;;;;;5053019;28;20568;-85
2022/11/15 04:17:37;;;;;;;10.10;7.53;;;11.50;99.90;;;;;;5053078;28;20215;-83
2022/11/15 04:25:43;;;;;;;7.93;7.07;;;11.30;99.90;;;;;;4996388;28;20241;-83
2022/11/15 04:28:10;;;;;;;8.00;6.57;;;11.30;99.90;;;;;;5052930;28;20208;-83
2022/11/15 04:30:39;;;;;;;8.40;6.70;;;11.30;99.90;;;;;;5053111;28;20197;-84
2022/11/15 04:33:07;;;;;;;8.70;7.17;;;11.30;99.90;;;;;;5052606;28;20302;-84
2022/11/15 04:35:34;;;;;;;10.07;6.97;;;11.30;99.90;;;;;;5052658;28;20721;-83
2022/11/15 04:38:00;;;;;;;9.27;6.80;;;11.20;99.90;;;;;;5053086;28;20675;-83
2022/11/15 04:40:27;;;;;;;10.53;6.60;;;11.20;99.90;;;;;;5052587;28;20212;-83
2022/11/15 04:42:54;;;;;;;12.50;6.27;;;11.20;99.90;;;;;;5052667;28;20214;-83
2022/11/15 04:45:21;;;;;;;7.93;6.10;;;11.20;99.90;;;;;;5052751;28;20215;-83
2022/11/15 04:47:48;;;;;;;11.25;8.10;;;11.10;99.90;;;;;;5052234;28;20452;-83
2022/11/15 04:50:17;;;;;;;11.33;6.93;;;11.20;99.90;;;;;;5052736;28;20213;-85
2022/11/15 04:52:45;;;;;;;7.13;6.20;;;11.10;99.90;;;;;;5052934;28;20678;-85
2022/11/15 04:55:12;;;;;;;9.97;6.30;;;11.10;99.90;;;;;;5046305;28;20223;-84
2022/11/15 04:57:39;;;;;;;7.10;6.00;;;11.10;99.90;;;;;;5048867;28;20200;-85
2022/11/15 05:00:08;;;;;;;14.07;6.33;;;11.20;99.90;;;;;;5048033;28;20207;-85
2022/11/15 05:05:17;;;;;;;10.13;5.80;;;11.00;99.90;;;;;;5014246;28;20239;-85
2022/11/15 05:07:44;;;;;;;9.13;5.73;;;11.10;99.90;;;;;;5052672;28;20296;-85
2022/11/15 05:10:12;;;;;;;9.87;5.93;;;11.10;99.90;;;;;;5052733;28;20211;-85
2022/11/15 05:12:39;;;;;;;7.80;4.80;;;11.00;99.90;;;;;;5052710;28;20207;-85
2022/11/15 05:15:08;;;;;;;7.83;5.13;;;10.90;99.90;;;;;;5052688;28;20211;-85
2022/11/15 05:17:40;;;;;;;9.57;6.32;;;10.90;99.90;;;;;;5051677;28;20429;-85
2022/11/15 05:20:14;;;;;;;9.83;5.40;;;10.90;99.90;;;;;;5052283;28;20204;-85
2022/11/15 05:22:42;;;;;;;7.10;4.90;;;10.90;99.90;;;;;;5039625;28;20203;-85
2022/11/15 05:25:09;;;;;;;7.23;5.10;;;10.80;99.90;;;;;;5052732;28;20211;-85
2022/11/15 05:27:36;;;;;;;8.57;4.50;;;10.80;99.90;;;;;;5052798;28;20563;-83
2022/11/15 05:30:04;;;;;;;5.43;4.07;;;10.60;99.90;;;;;;5056575;28;20212;-85
2022/11/15 05:32:31;;;;;;;4.80;4.40;;;10.60;99.90;;;;;;5056597;28;20207;-85
2022/11/15 05:34:58;;;;;;;10.80;4.90;;;10.70;99.90;;;;;;5055774;28;20204;-85
2022/11/15 05:37:25;;;;;;;8.70;4.50;;;10.70;99.90;;;;;;5056312;28;20228;-85
2022/11/15 05:39:53;;;;;;;10.50;4.80;;;10.80;99.90;;;;;;5055981;28;20670;-85
2022/11/15 05:42:20;;;;;;;4.53;3.70;;;10.80;99.90;;;;;;5056304;28;20203;-85
2022/11/15 05:44:50;;;;;;;7.10;3.80;;;10.80;99.90;;;;;;5056409;28;20199;-85
2022/11/15 05:47:27;;;;;;;6.80;3.67;;;10.80;99.90;;;;;;5056419;28;20261;-85
2022/11/15 05:49:54;;;;;;;7.00;3.70;;;10.80;99.90;;;;;;5055957;28;20219;-84
2022/11/15 05:52:25;;;;;;;6.37;4.17;;;10.80;99.90;;;;;;5056396;28;20207;-86
2022/11/15 05:54:55;;;;;;;5.33;4.33;;;10.80;99.90;;;;;;5055869;28;20199;-88
2022/11/15 05:57:23;;;;;;;5.70;3.80;;;10.80;99.90;;;;;;5056159;28;20219;-85
2022/11/15 05:59:49;;;;;;;5.80;3.87;;;10.80;99.90;;;;;;5055607;28;20215;-85
2022/11/15 06:02:16;;;;;;;5.50;4.27;;;10.70;99.90;;;;;;5056008;28;20208;-87
2022/11/15 06:04:43;;;;;;;6.63;3.60;;;10.60;99.90;;;;;;5055660;28;20211;-87
2022/11/15 06:07:11;;;;;;;6.83;3.30;;;10.70;99.90;;;;;;5056135;28;20237;-85
2022/11/15 06:09:38;;;;;;;7.30;3.60;;;10.70;99.90;;;;;;5055803;28;20195;-86
2022/11/15 06:12:06;;;;;;;10.43;4.03;;;10.70;99.90;;;;;;5055723;28;20199;-85
2022/11/15 06:14:33;;;;;;;8.03;4.00;;;10.60;99.90;;;;;;5055402;28;20222;-88
2022/11/15 06:17:00;;;;;;;6.07;3.73;;;10.50;99.90;;;;;;5054927;28;20241;-87
2022/11/15 06:19:27;;;;;;;4.57;3.50;;;10.50;99.90;;;;;;5055620;28;20566;-85
2022/11/15 06:21:54;;;;;;;6.30;3.70;;;10.50;99.90;;;;;;5055148;28;20202;-85
2022/11/15 06:24:23;;;;;;;4.23;3.80;;;10.50;99.90;;;;;;5055159;28;20573;-85
2022/11/15 06:26:51;;;;;;;7.77;3.60;;;10.40;99.90;;;;;;5055519;28;20597;-86
2022/11/15 06:29:20;;;;;;;4.60;3.60;;;10.40;99.90;;;;;;5055725;28;20257;-86
2022/11/15 06:31:48;;;;;;;6.93;3.43;;;10.40;99.90;;;;;;5055296;28;20203;-85
2022/11/15 06:34:15;;;;;;;5.60;3.40;;;10.30;99.90;;;;;;5056000;28;20218;-86
2022/11/15 06:36:42;;;;;;;7.63;4.77;;;10.30;99.90;;;;;;5055750;28;20704;-85
2022/11/15 06:39:10;;;;;;;6.83;3.10;;;10.20;99.90;;;;;;5055029;28;20207;-85
2022/11/15 06:41:38;;;;;;;4.77;3.67;;;10.00;99.90;;;;;;5054732;28;20214;-87
2022/11/15 06:44:05;;;;;;;6.67;3.47;;;10.00;99.90;;;;;;5058763;28;20205;-87
2022/11/15 06:46:33;;;;;;;8.67;4.07;;;10.00;99.90;;;;;;5065179;28;20289;-84
2022/11/15 06:49:00;;;;;;;5.47;3.90;;;10.00;99.90;;;;;;5055027;28;20207;-84
2022/11/15 06:51:27;;;;;;;7.07;3.83;;;10.00;99.90;;;;;;5054992;28;20207;-85
2022/11/15 06:53:54;;;;;;;5.67;3.60;;;10.00;99.90;;;;;;5054459;28;20580;-85
2022/11/15 06:56:22;;;;;;;8.30;3.90;;;10.10;99.90;;;;;;5054501;28;20230;-85
2022/11/15 06:58:50;;;;;;;5.67;3.90;;;10.00;99.90;;;;;;5055020;28;20200;-85
2022/11/15 07:01:23;;;;;;;3.93;3.33;;;10.00;99.90;;;;;;5054923;28;20219;-85
2022/11/15 07:03:57;;;;;;;6.33;4.27;;;9.90;99.90;;;;;;5054556;28;20266;-84
2022/11/15 07:06:25;;;;;;;9.57;4.70;;;9.90;99.90;;;;;;5054675;28;20214;-84
2022/11/15 07:08:53;;;;;;;5.80;3.87;;;9.90;99.90;;;;;;5054707;28;20203;-83
2022/11/15 07:11:19;;;;;;;7.33;3.80;;;9.90;99.90;;;;;;5054556;28;20206;-85
2022/11/15 07:13:47;;;;;;;7.17;4.53;;;9.90;99.90;;;;;;5042242;28;20214;-85
2022/11/15 07:16:14;;;;;;;5.17;4.60;;;9.90;99.90;;;;;;5055533;28;20218;-85
2022/11/15 07:18:41;;;;;;;11.47;5.47;;;9.80;99.90;;;;;;5038400;28;20199;-85
2022/11/15 07:21:12;;;;;;;8.40;5.00;;;9.80;99.90;;;;;;5056161;28;20568;-85
2022/11/15 07:23:40;;;;;;;9.07;5.80;;;9.80;99.90;;;;;;5054498;28;20711;-85
2022/11/15 07:26:07;;;;;;;9.97;5.47;;;9.90;99.90;;;;;;5054200;28;20218;-85
2022/11/15 07:28:34;;;;;;;6.73;5.87;;;9.80;99.90;;;;;;5053959;28;20207;-84
2022/11/15 07:31:03;;;;;;;10.23;5.87;;;9.80;99.90;;;;;;5053774;28;20213;-84
2022/11/15 07:33:30;;;;;;;8.97;6.13;;;9.80;99.90;;;;;;5054060;28;20228;-84
2022/11/15 07:36:01;;;;;;;10.77;6.23;;;9.70;99.90;;;;;;5053471;28;20206;-84
2022/11/15 07:38:29;;;;;;;12.73;6.60;;;9.70;99.90;;;;;;5054131;28;20256;-84
2022/11/15 07:40:58;;;;;;;11.10;5.67;;;9.50;99.90;;;;;;5053695;28;20357;-84
2022/11/15 07:43:27;;;;;;;12.30;6.13;;;9.60;99.90;;;;;;5054329;28;20203;-87
2022/11/15 07:46:04;;;;;;;6.57;5.80;;;9.60;99.90;;;;;;5053706;28;20210;-86
2022/11/15 07:48:31;;;;;;;9.77;5.00;;;9.60;99.90;;;;;;5054175;28;20208;-85
2022/11/15 07:50:58;;;;;;;6.60;4.90;;;9.50;99.90;;;;;;5052880;28;20213;-86
2022/11/15 07:53:25;;;;;;;9.20;5.97;;;9.60;99.90;;;;;;5053889;28;20199;-88
2022/11/15 07:55:53;;;;;;;7.87;4.63;;;9.50;99.90;;;;;;5053752;28;20206;-87
2022/11/15 07:58:20;;;;;;;9.17;4.93;;;9.60;99.90;;;;;;5053475;28;20202;-84
2022/11/15 08:00:47;;;;;;;6.13;4.00;;;9.70;99.90;;;;;;5053866;28;20221;-84
2022/11/15 08:03:15;;;;;;;9.00;4.00;;;9.70;99.90;;;;;;5053226;28;20577;-84
2022/11/15 08:05:43;;;;;;;4.37;3.57;;;9.80;99.90;;;;;;5053766;28;20314;-84
2022/11/15 08:08:11;;;;;;;4.37;3.90;;;9.90;99.90;;;;;;5056209;28;20213;-84
2022/11/15 08:10:39;;;;;;;6.00;2.90;;;9.90;99.90;;;;;;5053562;28;20199;-84
2022/11/15 08:13:09;;;;;;;5.77;2.90;;;9.90;99.90;;;;;;5052019;28;20758;-86
2022/11/15 08:15:37;;;;;;;3.67;2.93;;;9.90;99.90;;;;;;5047329;28;20199;-89
2022/11/15 08:18:05;;;;;;;3.93;2.70;;;9.90;99.90;;;;;;5046254;28;20237;-86
2022/11/15 08:20:33;;;;;;;8.23;3.10;;;10.10;99.90;;;;;;5052198;28;20194;-86
2022/11/15 08:23:02;;;;;;;6.57;2.33;;;10.10;99.90;;;;;;5053222;28;20671;-87
2022/11/15 08:25:30;;;;;;;2.73;2.30;;;10.10;99.90;;;;;;5053616;28;20206;-88
2022/11/15 08:28:00;;;;;;;4.77;2.37;;;10.10;99.90;;;;;;5053176;28;20207;-86
2022/11/15 08:30:28;;;;;;;4.53;2.53;;;10.20;99.90;;;;;;5053316;28;20203;-85
2022/11/15 08:32:57;;;;;;;6.20;2.23;;;10.20;99.90;;;;;;5053308;28;20199;-87
2022/11/15 08:35:24;;;;;;;3.50;2.20;;;10.30;99.90;;;;;;5053008;28;20202;-88
2022/11/15 08:37:53;;;;;;;4.80;2.13;;;10.30;99.90;;;;;;5053010;28;20233;-87
2022/11/15 08:40:20;;;;;;;3.77;2.07;;;10.40;99.90;;;;;;5052789;28;20217;-86
2022/11/15 08:42:47;;;;;;;8.03;2.10;;;10.50;99.90;;;;;;5053074;28;20214;-86
2022/11/15 08:45:14;;;;;;;4.63;2.10;;;10.50;99.90;;;;;;5053357;28;20508;-88
2022/11/15 08:47:44;;;;;;;5.63;1.93;;;10.50;99.90;;;;;;5053422;28;20574;-89
2022/11/15 08:50:11;;;;;;;3.00;2.30;;;10.50;99.90;;;;;;5053316;28;20207;-88
2022/11/15 08:52:37;;;;;;;6.50;1.70;;;10.60;99.90;;;;;;5053417;28;20624;-88
2022/11/15 08:55:06;;;;;;;3.27;1.70;;;10.70;99.90;;;;;;5053045;28;20207;-87
2022/11/15 08:57:33;;;;;;;6.50;1.57;;;10.80;99.90;;;;;;5052734;28;20231;-87
2022/11/15 09:00:00;;;;;;;5.27;2.17;;;10.80;99.90;;;;;;5053330;28;20195;-87
2022/11/15 09:02:27;;;;;;;4.73;1.90;;;10.90;99.90;;;;;;5053989;28;20194;-85
2022/11/15 09:04:55;;;;;;;4.40;1.70;;;11.00;99.90;;;;;;5059008;28;20207;-87
2022/11/15 09:07:22;;;;;;;5.40;1.57;;;11.00;99.90;;;;;;5057717;28;20207;-86
2022/11/15 09:09:48;;;;;;;8.10;1.63;;;11.10;99.90;;;;;;5057186;28;20190;-86
2022/11/15 09:12:16;;;;;;;3.13;1.63;;;11.10;99.90;;;;;;5057306;28;20204;-87
2022/11/15 09:14:43;;;;;;;5.20;1.70;;;11.20;99.90;;;;;;5056647;28;20196;-86
2022/11/15 09:17:10;;;;;;;6.50;1.63;;;11.30;99.90;;;;;;5056626;28;20217;-85
2022/11/15 09:19:37;;;;;;;4.23;1.93;;;11.40;99.90;;;;;;5056762;28;20205;-84
2022/11/15 09:22:08;;;;;;;8.43;2.60;;;11.30;99.90;;;;;;5053699;28;20595;-85
2022/11/15 09:24:35;;;;;;;4.03;1.30;;;11.40;99.90;;;;;;5052368;28;20208;-85
2022/11/15 09:27:03;;;;;;;4.93;1.50;;;11.30;99.90;;;;;;5055103;28;20216;-84
2022/11/15 09:29:30;;;;;;;7.87;1.67;;;11.40;99.90;;;;;;5056306;28;20211;-84
2022/11/15 09:31:57;;;;;;;7.67;1.50;;;11.40;99.90;;;;;;5056079;28;20201;-84
2022/11/15 09:34:23;;;;;;;5.23;1.80;;;11.40;99.90;;;;;;5056179;28;20221;-85
2022/11/15 09:36:50;;;;;;;3.10;1.40;;;11.40;99.90;;;;;;5056551;28;20254;-84
2022/11/15 09:39:18;;;;;;;4.57;1.60;;;11.50;99.90;;;;;;5056275;28;20212;-84
2022/11/15 09:42:26;;;;;;;4.23;1.30;;;11.50;99.90;;;;;;5055811;28;20218;-85
2022/11/15 09:45:18;;;;;;;3.70;1.50;;;11.60;99.90;;;;;;5025380;28;20227;-85
2022/11/15 09:48:20;;;;;;;5.73;1.43;;;11.70;99.90;;;;;;5053368;28;20666;-85
2022/11/15 09:50:49;;;;;;;2.67;1.27;;;11.60;99.90;;;;;;5056234;28;20199;-84
2022/11/15 09:53:23;;;;;;;3.93;1.40;;;11.70;99.90;;;;;;5056321;28;20196;-84
2022/11/15 09:55:59;;;;;;;4.50;1.30;;;11.80;99.90;;;;;;5055877;28;20719;-85
2022/11/15 09:58:33;;;;;;;5.03;2.10;;;11.80;99.90;;;;;;5055296;28;20239;-84
2022/11/15 10:01:04;;;;;;;5.10;1.40;;;11.90;99.90;;;;;;5054780;28;20199;-84
2022/11/15 10:03:35;;;;;;;6.53;1.83;;;11.90;99.90;;;;;;5056481;28;20198;-83
2022/11/15 10:06:04;;;;;;;3.73;1.43;;;12.00;99.90;;;;;;5061085;28;20219;-85
2022/11/15 10:08:45;;;;;;;9.23;1.40;;;12.00;99.90;;;;;;5056417;28;20213;-84
2022/11/15 10:11:18;;;;;;;5.57;1.60;;;12.00;99.90;;;;;;5055701;28;20211;-85
2022/11/15 10:13:49;;;;;;;4.57;1.43;;;12.00;99.90;;;;;;5055099;28;20631;-84
2022/11/15 10:16:38;;;;;;;1.97;1.23;;;12.00;99.90;;;;;;5055790;28;20563;-85
2022/11/15 10:19:14;;;;;;;3.77;1.80;;;11.90;99.90;;;;;;5056057;28;20220;-85
2022/11/15 10:21:54;;;;;;;5.15;1.90;;;12.10;99.90;;;;;;5060034;28;20444;-84
2022/11/15 10:24:27;;;;;;;7.07;1.77;;;12.20;99.90;;;;;;5055355;28;20892;-86
2022/11/15 10:26:56;;;;;;;8.30;1.30;;;12.20;99.90;;;;;;5065017;28;20269;-84
2022/11/15 10:29:25;;;;;;;7.17;2.33;;;12.30;99.90;;;;;;5054522;28;20206;-84
2022/11/15 10:31:53;;;;;;;4.70;1.90;;;12.40;99.90;;;;;;5055701;28;20199;-82
2022/11/15 10:34:22;;;;;;;6.67;1.77;;;12.40;99.90;;;;;;5055449;28;20198;-85
2022/11/15 10:36:56;;;;;;;4.77;1.63;;;12.50;99.90;;;;;;5055293;28;20204;-85
2022/11/15 10:39:31;;;;;;;5.30;1.40;;;12.60;99.90;;;;;;5059109;28;20201;-95
2022/11/15 10:42:17;;;;;;;5.83;1.43;;;12.70;99.90;;;;;;5056181;28;20222;-87
2022/11/15 10:44:45;;;;;;;6.68;1.90;;;12.70;99.90;;;;;;5054471;28;20429;-83
2022/11/15 10:47:28;;;;;;;5.33;1.60;;;12.70;99.90;;;;;;5055661;28;20194;-81
2022/11/15 10:50:01;;;;;;;4.53;1.73;;;12.70;99.90;;;;;;5055637;28;20186;-83
2022/11/15 10:52:31;;;;;;;7.97;1.70;;;12.90;99.90;;;;;;5054955;28;20565;-82
2022/11/15 10:55:03;;;;;;;7.60;1.70;;;12.80;99.90;;;;;;5055406;28;20241;-81
2022/11/15 10:57:34;;;;;;;3.07;1.20;;;12.90;99.90;;;;;;5055376;28;20229;-83
2022/11/15 11:00:08;;;;;;;5.47;1.33;;;13.00;99.90;;;;;;5055848;28;20209;-88
2022/11/15 11:02:37;;;;;;;5.13;1.20;;;13.00;99.90;;;;;;5056722;28;20198;-87
2022/11/15 11:05:33;;;;;;;6.87;1.43;;;13.10;99.90;;;;;;5056845;28;20277;-88
2022/11/15 11:08:03;;;;;;;6.00;1.50;;;13.20;99.90;;;;;;5055602;28;20637;-85
2022/11/15 11:10:33;;;;;;;5.23;1.47;;;13.20;99.90;;;;;;5057030;28;20237;-87
2022/11/15 11:13:15;;;;;;;5.30;1.53;;;13.10;99.90;;;;;;5056170;28;20233;-85
2022/11/15 11:15:47;;;;;;;5.37;1.13;;;13.30;99.90;;;;;;5055771;28;20191;-85
2022/11/15 11:18:27;;;;;;;3.60;1.40;;;13.40;99.90;;;;;;5055596;28;20234;-85
2022/11/15 11:20:59;;;;;;;3.43;1.43;;;13.30;99.90;;;;;;5054768;28;20198;-86
2022/11/15 11:23:42;;;;;;;3.33;1.20;;;13.20;99.90;;;;;;5055309;28;20190;-86
2022/11/15 11:26:26;;;;;;;3.50;0.90;;;13.20;99.90;;;;;;5055384;28;20205;-86
2022/11/15 11:29:06;;;;;;;5.17;2.40;;;13.30;99.90;;;;;;5057994;28;20201;-84
2022/11/15 11:31:47;;;;;;;4.33;1.20;;;13.40;99.90;;;;;;5062167;28;20197;-83
2022/11/15 11:34:21;;;;;;;5.90;1.47;;;13.40;99.90;;;;;;5062202;28;20205;-84
2022/11/15 11:36:55;;;;;;;5.20;1.50;;;13.40;99.90;;;;;;5066193;28;20200;-82
2022/11/15 11:39:30;;;;;;;2.27;1.40;;;13.50;99.90;;;;;;5054558;28;20582;-84
2022/11/15 11:42:04;;;;;;;2.37;0.97;;;13.50;99.90;;;;;;5054270;28;20209;-84
2022/11/15 11:44:37;;;;;;;4.03;1.37;;;13.60;99.90;;;;;;5054504;28;20214;-84
2022/11/15 11:47:10;;;;;;;4.57;1.70;;;13.70;99.90;;;;;;5054372;28;20198;-86
2022/11/15 11:49:46;;;;;;;9.10;1.37;;;13.70;99.90;;;;;;5054746;28;20206;-85
2022/11/15 11:52:19;;;;;;;6.47;1.70;;;13.70;99.90;;;;;;5053616;28;20251;-83
2022/11/15 11:54:55;;;;;;;6.50;1.63;;;13.70;99.90;;;;;;5055085;28;20596;-86
2022/11/15 11:57:31;;;;;;;7.87;1.20;;;13.70;99.90;;;;;;5054425;28;20203;-85
2022/11/15 12:00:03;;;;;;;5.70;1.33;;;13.70;99.90;;;;;;5054862;28;20194;-83
2022/11/15 12:02:32;;;;;;;6.27;1.37;;;13.70;99.90;;;;;;5041310;28;20211;-82
2022/11/15 12:05:09;;;;;;;4.50;1.17;;;13.70;99.90;;;;;;5053356;28;20681;-83
2022/11/15 12:07:38;;;;;;;3.47;1.40;;;13.70;99.90;;;;;;5053928;28;20191;-81
2022/11/15 12:10:15;;;;;;;4.67;1.50;;;13.70;99.90;;;;;;5066356;28;20197;-84
2022/11/15 12:12:56;;;;;;;5.93;1.40;;;13.70;99.90;;;;;;5059274;28;20650;-83
2022/11/15 12:15:27;;;;;;;6.40;1.53;;;13.80;99.90;;;;;;5070859;28;20198;-84
2022/11/15 12:17:56;;;;;;;4.60;1.37;;;13.80;99.90;;;;;;5066537;28;20245;-84
2022/11/15 12:20:30;;;;;;;7.73;1.67;;;13.80;99.90;;;;;;5054928;28;20206;-86
2022/11/15 12:23:05;;;;;;;5.50;1.50;;;13.60;99.90;;;;;;5054648;28;20278;-87
2022/11/15 12:25:46;;;;;;;6.20;1.27;;;13.70;99.90;;;;;;5054463;28;20569;-87
2022/11/15 12:28:18;;;;;;;4.70;1.20;;;13.70;99.90;;;;;;5059553;28;20213;-86
2022/11/15 12:30:58;;;;;;;2.60;1.33;;;13.70;99.90;;;;;;5054027;28;20210;-86
2022/11/15 12:33:37;;;;;;;4.57;1.70;;;13.70;99.90;;;;;;5054269;28;20209;-87
2022/11/15 12:36:07;;;;;;;4.37;1.30;;;13.70;99.90;;;;;;5053814;28;20191;-85
2022/11/15 12:38:56;;;;;;;5.63;1.40;;;13.70;99.90;;;;;;5053501;28;20226;-86
2022/11/15 12:41:26;;;;;;;4.07;1.20;;;13.60;99.90;;;;;;5054210;28;20214;-86
2022/11/15 12:43:53;;;;;;;6.47;1.40;;;13.70;99.90;;;;;;5068233;28;20273;-86
2022/11/15 12:46:59;;;;;;;2.90;1.37;;;13.80;99.90;;;;;;5074307;28;20557;-86
2022/11/15 12:49:45;;;;;;;3.10;1.20;;;13.90;99.90;;;;;;5074031;28;20209;-87
2022/11/15 12:52:13;;;;;;;5.07;1.93;;;13.90;99.90;;;;;;5072532;28;20327;-87
2022/11/15 12:55:05;;;;;;;3.73;1.00;;;13.90;99.90;;;;;;5074698;28;20197;-87
2022/11/15 12:57:44;;;;;;;3.00;1.20;;;14.10;99.90;;;;;;5073882;28;20190;-85
2022/11/15 13:00:44;;;;;;;3.40;0.83;;;14.20;99.90;;;;;;5073890;28;20209;-85
2022/11/15 13:03:28;;;;;;;5.53;1.10;;;14.10;99.90;;;;;;5068660;28;20275;-86
2022/11/15 13:06:32;;;;;;;3.87;1.20;;;13.90;99.90;;;;;;5073530;28;20225;-86
2022/11/15 13:09:00;;;;;;;3.03;1.20;;;14.00;99.90;;;;;;5073005;28;20572;-86
2022/11/15 13:11:48;;;;;;;4.03;1.40;;;13.90;99.90;;;;;;5073519;28;20194;-86